createdAt,value
2019-04-28T00:01:36.534Z,9.40
2019-04-28T00:04:23.609Z,9.40
2019-04-28T00:07:11.943Z,9.50
2019-04-28T00:10:01.001Z,9.50
2019-04-28T00:12:48.357Z,9.50
2019-04-28T00:15:35.601Z,9.60
2019-04-28T00:18:23.701Z,9.50
2019-04-28T00:21:24.159Z,9.50
2019-04-28T00:24:28.229Z,9.40
2019-04-28T00:27:17.065Z,9.40
2019-04-28T00:30:06.185Z,9.50
2019-04-28T00:32:53.676Z,9.50
2019-04-28T00:35:41.844Z,9.50
2019-04-28T00:38:29.177Z,9.50
2019-04-28T00:41:16.125Z,9.50
2019-04-28T00:44:03.109Z,9.50
2019-04-28T00:46:51.169Z,9.30
2019-04-28T00:49:47.862Z,9.30
2019-04-28T00:52:35.161Z,9.40
2019-04-28T00:55:22.705Z,9.30
2019-04-28T00:58:10.921Z,9.30
2019-04-28T01:01:01.456Z,9.30
2019-04-28T01:03:48.565Z,9.20
2019-04-28T01:06:36.045Z,9.30
2019-04-28T01:09:23.478Z,9.40
2019-04-28T01:12:11.173Z,9.30
2019-04-28T01:15:01.629Z,9.40
2019-04-28T01:18:02.842Z,9.40
2019-04-28T01:20:50.254Z,9.30
2019-04-28T01:23:37.481Z,9.30
2019-04-28T01:26:24.880Z,9.30
2019-04-28T01:29:12.065Z,9.20
2019-04-28T01:32:07.650Z,9.20
2019-04-28T01:34:55.149Z,9.20
2019-04-28T01:37:42.114Z,9.20
2019-04-28T01:40:30.458Z,9.30
2019-04-28T01:43:19.606Z,9.30
2019-04-28T01:46:06.922Z,9.30
2019-04-28T01:48:54.145Z,9.30
2019-04-28T01:51:41.571Z,9.20
2019-04-28T01:54:30.250Z,9.30
2019-04-28T01:57:17.398Z,9.20
2019-04-28T02:00:21.410Z,9.10
2019-04-28T02:02:55.886Z,9.20
2019-04-28T02:05:43.206Z,9.20
2019-04-28T02:08:30.448Z,9.20
2019-04-28T02:11:17.750Z,9.10
2019-04-28T02:14:05.769Z,9.20
2019-04-28T02:16:53.184Z,9.20
2019-04-28T02:19:40.918Z,9.20
2019-04-28T02:22:40.143Z,9.10
2019-04-28T02:25:27.669Z,9.00
2019-04-28T02:28:14.889Z,9.10
2019-04-28T02:31:02.449Z,9.10
2019-04-28T02:33:50.504Z,9.10
2019-04-28T02:36:40.558Z,9.10
2019-04-28T02:39:27.207Z,9.10
2019-04-28T02:42:14.598Z,9.00
2019-04-28T02:45:01.978Z,9.00
2019-04-28T02:47:52.244Z,9.00
2019-04-28T02:50:46.999Z,9.00
2019-04-28T02:53:37.374Z,9.00
2019-04-28T02:56:24.553Z,9.10
2019-04-28T02:59:11.738Z,9.00
2019-04-28T03:02:00.699Z,9.10
2019-04-28T03:04:50.685Z,9.10
2019-04-28T03:07:37.318Z,9.10
2019-04-28T03:10:24.355Z,9.10
2019-04-28T03:13:13.442Z,8.90
2019-04-28T03:16:01.557Z,9.00
2019-04-28T03:18:51.386Z,9.00
2019-04-28T03:21:38.145Z,9.00
2019-04-28T03:24:25.414Z,9.00
2019-04-28T03:27:34.816Z,9.00
2019-04-28T03:30:43.837Z,9.10
2019-04-28T03:33:34.201Z,9.00
2019-04-28T03:36:23.095Z,9.00
2019-04-28T03:39:10.864Z,9.00
2019-04-28T03:41:57.136Z,9.10
2019-04-28T03:44:44.114Z,9.10
2019-04-28T03:47:31.691Z,9.10
2019-04-28T03:50:20.232Z,9.10
2019-04-28T03:53:07.838Z,9.10
2019-04-28T03:55:55.081Z,9.10
2019-04-28T03:58:42.454Z,9.10
2019-04-28T04:01:30.470Z,9.10
2019-04-28T04:04:17.882Z,9.10
2019-04-28T04:07:05.081Z,9.10
2019-04-28T04:10:17.502Z,9.10
2019-04-28T04:13:20.123Z,9.10
2019-04-28T04:16:14.485Z,9.10
2019-04-28T04:19:02.787Z,9.10
2019-04-28T04:21:52.657Z,9.10
2019-04-28T04:24:40.354Z,9.10
2019-04-28T04:27:30.679Z,9.10
2019-04-28T04:30:16.859Z,9.10
2019-04-28T04:33:04.181Z,9.20
2019-04-28T04:35:51.896Z,9.20
2019-04-28T04:38:43.317Z,9.20
2019-04-28T04:41:30.406Z,9.30
2019-04-28T04:44:17.147Z,9.30
2019-04-28T04:47:04.474Z,9.40
2019-04-28T04:49:51.696Z,9.40
2019-04-28T04:52:40.222Z,9.40
2019-04-28T04:55:27.975Z,9.40
2019-04-28T04:58:14.894Z,9.40
2019-04-28T05:01:10.623Z,9.30
2019-04-28T05:04:00.882Z,9.40
2019-04-28T05:06:49.595Z,9.50
2019-04-28T05:09:37.029Z,9.50
2019-04-28T05:12:24.145Z,9.50
2019-04-28T05:15:11.405Z,9.50
2019-04-28T05:18:00.270Z,9.50
2019-04-28T05:20:47.634Z,9.50
2019-04-28T05:24:00.421Z,9.40
2019-04-28T05:26:49.740Z,9.40
2019-04-28T05:29:37.138Z,9.50
2019-04-28T05:32:24.326Z,9.60
2019-04-28T05:35:11.301Z,9.50
2019-04-28T05:37:59.776Z,9.50
2019-04-28T05:40:47.183Z,9.60
2019-04-28T05:43:34.678Z,9.50
2019-04-28T05:46:22.124Z,9.60
2019-04-28T05:49:15.325Z,9.60
2019-04-28T05:52:09.634Z,9.70
2019-04-28T05:55:04.126Z,9.50
2019-04-28T05:58:13.623Z,9.60
2019-04-28T06:01:10.280Z,9.70
2019-04-28T06:03:57.699Z,9.60
2019-04-28T06:06:46.579Z,9.70
2019-04-28T06:09:40.949Z,9.50
2019-04-28T06:12:27.941Z,9.60
2019-04-28T06:15:15.382Z,9.60
2019-04-28T06:18:02.350Z,9.70
2019-04-28T06:20:49.860Z,9.80
2019-04-28T06:23:37.261Z,9.80
2019-04-28T06:26:24.773Z,9.80
2019-04-28T06:29:11.833Z,9.90
2019-04-28T06:31:59.333Z,9.90
2019-04-28T06:34:46.781Z,9.90
2019-04-28T06:37:34.052Z,10.00
2019-04-28T06:40:21.353Z,10.00
2019-04-28T06:43:08.817Z,10.00
2019-04-28T06:45:55.764Z,10.10
2019-04-28T06:48:43.369Z,10.10
2019-04-28T06:51:30.846Z,10.10
2019-04-28T06:54:18.286Z,10.20
2019-04-28T06:57:05.409Z,10.20
2019-04-28T06:59:52.826Z,10.30
2019-04-28T07:02:40.021Z,10.30
2019-04-28T07:05:26.974Z,10.40
2019-04-28T07:08:14.506Z,10.20
2019-04-28T07:11:01.734Z,10.30
2019-04-28T07:13:48.632Z,10.50
2019-04-28T07:16:35.937Z,10.60
2019-04-28T07:19:23.343Z,10.60
2019-04-28T07:22:16.314Z,10.60
2019-04-28T07:25:03.997Z,10.70
2019-04-28T07:27:51.007Z,10.60
2019-04-28T07:30:40.186Z,10.70
2019-04-28T07:33:35.773Z,10.80
2019-04-28T07:36:16.493Z,10.80
2019-04-28T07:39:05.626Z,10.90
2019-04-28T07:41:52.930Z,11.00
2019-04-28T07:44:40.188Z,11.00
2019-04-28T07:47:27.397Z,11.10
2019-04-28T07:50:15.033Z,11.20
2019-04-28T07:53:18.869Z,11.10
2019-04-28T07:56:06.101Z,11.30
2019-04-28T07:58:53.562Z,11.40
2019-04-28T08:01:41.009Z,11.30
2019-04-28T08:04:28.196Z,11.50
2019-04-28T08:07:15.237Z,11.60
2019-04-28T08:10:02.202Z,11.50
2019-04-28T08:12:49.727Z,11.80
2019-04-28T08:15:36.996Z,11.60
2019-04-28T08:18:24.186Z,11.60
2019-04-28T08:21:11.809Z,11.70
2019-04-28T08:23:59.212Z,11.60
2019-04-28T08:26:46.680Z,11.70
2019-04-28T08:29:34.187Z,11.90
2019-04-28T08:32:28.116Z,11.90
2019-04-28T08:35:15.638Z,11.80
2019-04-28T08:38:02.591Z,12.00
2019-04-28T08:40:49.517Z,12.00
2019-04-28T08:43:36.818Z,12.00
2019-04-28T08:46:23.754Z,12.10
2019-04-28T08:49:10.981Z,12.00
2019-04-28T08:51:58.057Z,12.20
2019-04-28T08:54:45.350Z,12.20
2019-04-28T08:57:32.821Z,12.30
2019-04-28T09:00:19.925Z,12.50
2019-04-28T09:03:07.033Z,12.40
2019-04-28T09:05:54.237Z,12.40
2019-04-28T09:08:41.271Z,12.50
2019-04-28T09:11:28.588Z,12.70
2019-04-28T09:14:15.861Z,12.50
2019-04-28T09:17:03.136Z,12.60
2019-04-28T09:19:50.377Z,12.70
2019-04-28T09:22:38.002Z,12.70
2019-04-28T09:25:25.470Z,13.10
2019-04-28T09:28:13.055Z,13.60
2019-04-28T09:31:00.478Z,14.10
2019-04-28T09:33:47.677Z,13.10
2019-04-28T09:36:34.914Z,13.20
2019-04-28T09:39:42.905Z,13.70
2019-04-28T09:42:49.948Z,13.60
2019-04-28T09:45:59.085Z,13.60
2019-04-28T09:48:46.201Z,13.70
2019-04-28T09:51:33.521Z,14.10
2019-04-28T09:54:20.757Z,14.20
2019-04-28T09:57:07.690Z,14.60
2019-04-28T09:59:55.139Z,14.70
2019-04-28T10:02:42.366Z,14.50
2019-04-28T10:05:29.569Z,14.30
2019-04-28T10:08:17.006Z,14.60
2019-04-28T10:11:04.713Z,15.10
2019-04-28T10:13:52.214Z,14.90
2019-04-28T10:16:39.658Z,15.00
2019-04-28T10:19:26.993Z,14.80
2019-04-28T10:22:13.953Z,14.50
2019-04-28T10:25:01.197Z,14.20
2019-04-28T10:27:48.161Z,13.70
2019-04-28T10:30:35.609Z,13.60
2019-04-28T10:33:22.997Z,13.60
2019-04-28T10:36:10.218Z,13.80
2019-04-28T10:39:18.735Z,13.80
2019-04-28T10:42:06.162Z,13.70
2019-04-28T10:44:53.641Z,13.50
2019-04-28T10:47:40.918Z,13.40
2019-04-28T10:50:28.093Z,13.30
2019-04-28T10:53:15.610Z,13.20
2019-04-28T10:56:02.849Z,13.10
2019-04-28T10:58:51.679Z,13.20
2019-04-28T11:01:38.885Z,13.00
2019-04-28T11:05:08.289Z,13.00
2019-04-28T11:07:49.690Z,13.10
2019-04-28T11:10:37.012Z,13.30
2019-04-28T11:13:24.233Z,13.50
2019-04-28T11:16:14.214Z,13.40
2019-04-28T11:19:01.685Z,13.60
2019-04-28T11:21:48.913Z,13.60
2019-04-28T11:24:36.166Z,13.60
2019-04-28T11:27:24.385Z,13.70
2019-04-28T11:30:12.550Z,13.80
2019-04-28T11:33:18.817Z,13.90
2019-04-28T11:36:06.901Z,14.10
2019-04-28T11:38:54.125Z,14.60
2019-04-28T11:41:41.733Z,15.50
2019-04-28T11:44:28.984Z,15.90
2019-04-28T11:47:18.742Z,16.40
2019-04-28T11:50:06.088Z,16.70
2019-04-28T11:52:53.506Z,16.80
2019-04-28T11:55:41.061Z,16.50
2019-04-28T11:58:28.069Z,16.20
2019-04-28T12:01:16.781Z,15.60
2019-04-28T12:04:05.798Z,15.30
2019-04-28T12:06:53.095Z,15.60
2019-04-28T12:09:46.017Z,15.70
2019-04-28T12:12:58.441Z,15.40
2019-04-28T12:15:56.380Z,15.70
2019-04-28T12:18:58.141Z,15.70
2019-04-28T12:21:45.272Z,15.20
2019-04-28T12:24:32.688Z,15.50
2019-04-28T12:27:20.161Z,15.60
2019-04-28T12:30:07.861Z,15.40
2019-04-28T12:32:55.075Z,15.70
2019-04-28T12:35:47.887Z,15.60
2019-04-28T12:38:31.408Z,15.30
2019-04-28T12:41:18.440Z,15.30
2019-04-28T12:44:06.046Z,15.00
2019-04-28T12:46:53.603Z,14.70
2019-04-28T12:49:48.010Z,14.30
2019-04-28T12:52:35.257Z,14.00
2019-04-28T12:55:22.692Z,13.10
2019-04-28T12:58:10.033Z,13.20
2019-04-28T13:01:07.469Z,13.20
2019-04-28T13:04:14.021Z,12.70
2019-04-28T13:07:10.693Z,12.70
2019-04-28T13:09:57.763Z,12.50
2019-04-28T13:12:44.950Z,12.40
2019-04-28T13:15:32.161Z,12.10
2019-04-28T13:18:19.147Z,12.20
2019-04-28T13:21:06.575Z,12.20
2019-04-28T13:23:53.533Z,12.00
2019-04-28T13:26:40.777Z,12.10
2019-04-28T13:29:27.706Z,12.10
2019-04-28T13:32:15.021Z,12.20
2019-04-28T13:35:02.324Z,12.10
2019-04-28T13:37:49.505Z,12.00
2019-04-28T13:40:38.585Z,12.00
2019-04-28T13:43:25.995Z,12.10
2019-04-28T13:46:13.322Z,12.00
2019-04-28T13:49:01.746Z,11.90
2019-04-28T13:51:49.171Z,12.10
2019-04-28T13:54:36.697Z,12.10
2019-04-28T13:57:23.645Z,12.10
2019-04-28T14:00:13.138Z,12.20
2019-04-28T14:03:08.097Z,12.30
2019-04-28T14:05:59.234Z,12.40
2019-04-28T14:08:46.176Z,12.50
2019-04-28T14:11:33.349Z,12.60
2019-04-28T14:14:20.581Z,12.70
2019-04-28T14:17:07.809Z,12.80
2019-04-28T14:19:55.262Z,12.90
2019-04-28T14:22:42.533Z,13.20
2019-04-28T14:25:29.634Z,13.50
2019-04-28T14:28:17.118Z,13.80
2019-04-28T14:31:04.660Z,14.60
2019-04-28T14:33:52.231Z,15.20
2019-04-28T14:36:42.159Z,15.60
2019-04-28T14:39:28.371Z,15.50
2019-04-28T14:42:15.525Z,16.20
2019-04-28T14:45:03.187Z,15.80
2019-04-28T14:47:50.353Z,16.00
2019-04-28T14:50:37.881Z,16.50
2019-04-28T14:53:25.066Z,16.60
2019-04-28T14:56:12.406Z,16.80
2019-04-28T14:58:59.697Z,16.80
2019-04-28T15:02:09.447Z,16.50
2019-04-28T15:05:18.640Z,16.70
2019-04-28T15:08:24.988Z,16.70
2019-04-28T15:11:28.510Z,17.30
2019-04-28T15:14:15.696Z,16.80
2019-04-28T15:17:03.537Z,17.30
2019-04-28T15:19:50.665Z,17.60
2019-04-28T15:22:37.861Z,17.80
2019-04-28T15:25:24.861Z,18.10
2019-04-28T15:28:11.889Z,18.00
2019-04-28T15:30:58.809Z,17.60
2019-04-28T15:33:46.038Z,18.00
2019-04-28T15:36:32.934Z,17.40
2019-04-28T15:39:20.198Z,17.80
2019-04-28T15:42:07.403Z,17.60
2019-04-28T15:44:54.690Z,18.20
2019-04-28T15:47:42.202Z,18.30
2019-04-28T15:50:29.441Z,17.90
2019-04-28T15:53:16.393Z,18.10
2019-04-28T15:56:25.582Z,18.10
2019-04-28T15:59:12.993Z,17.90
2019-04-28T16:02:00.207Z,17.70
2019-04-28T16:04:47.431Z,18.00
2019-04-28T16:07:34.510Z,18.00
2019-04-28T16:10:21.837Z,18.10
2019-04-28T16:13:09.029Z,18.00
2019-04-28T16:15:56.511Z,17.10
2019-04-28T16:18:43.950Z,17.90
2019-04-28T16:21:31.165Z,17.60
2019-04-28T16:24:18.362Z,17.10
2019-04-28T16:27:07.374Z,16.80
2019-04-28T16:29:54.825Z,16.60
2019-04-28T16:32:42.306Z,17.10
2019-04-28T16:35:29.549Z,17.50
2019-04-28T16:38:16.630Z,17.30
2019-04-28T16:41:03.905Z,17.30
2019-04-28T16:43:51.117Z,17.30
2019-04-28T16:46:39.160Z,17.50
2019-04-28T16:49:26.733Z,18.00
2019-04-28T16:52:14.012Z,17.70
2019-04-28T16:55:15.030Z,18.00
2019-04-28T16:58:19.149Z,18.00
2019-04-28T17:01:24.405Z,18.30
2019-04-28T17:04:11.954Z,18.30
2019-04-28T17:06:59.313Z,18.40
2019-04-28T17:09:46.509Z,18.30
2019-04-28T17:12:33.779Z,18.50
2019-04-28T17:15:21.193Z,18.60
2019-04-28T17:18:08.545Z,18.30
2019-04-28T17:20:55.768Z,18.40
2019-04-28T17:23:43.254Z,18.30
2019-04-28T17:26:30.317Z,18.20
2019-04-28T17:29:17.765Z,18.10
2019-04-28T17:32:05.241Z,17.90
2019-04-28T17:34:52.493Z,17.70
2019-04-28T17:37:40.017Z,17.40
2019-04-28T17:40:28.330Z,17.00
2019-04-28T17:43:15.752Z,16.90
2019-04-28T17:46:03.454Z,16.50
2019-04-28T17:48:55.582Z,16.60
2019-04-28T17:51:43.005Z,16.40
2019-04-28T17:54:30.433Z,16.30
2019-04-28T17:57:17.458Z,16.20
2019-04-28T18:00:11.397Z,16.20
2019-04-28T18:03:07.437Z,16.10
2019-04-28T18:05:59.478Z,15.90
2019-04-28T18:08:46.926Z,15.90
2019-04-28T18:11:34.549Z,15.70
2019-04-28T18:14:21.944Z,15.60
2019-04-28T18:17:27.073Z,15.50
2019-04-28T18:20:14.526Z,15.40
2019-04-28T18:23:01.802Z,15.30
2019-04-28T18:25:49.684Z,15.10
2019-04-28T18:28:36.931Z,15.00
2019-04-28T18:31:46.117Z,14.90
2019-04-28T18:34:52.181Z,14.80
2019-04-28T18:38:07.859Z,14.70
2019-04-28T18:41:17.560Z,14.50
2019-04-28T18:44:24.026Z,14.40
2019-04-28T18:47:11.441Z,14.30
2019-04-28T18:49:58.639Z,14.20
2019-04-28T18:52:46.246Z,14.00
2019-04-28T18:55:33.286Z,14.00
2019-04-28T18:58:20.545Z,13.90
2019-04-28T19:01:25.278Z,13.80
2019-04-28T19:04:12.692Z,13.60
2019-04-28T19:07:05.414Z,13.60
2019-04-28T19:09:58.622Z,13.50
2019-04-28T19:13:05.401Z,13.50
2019-04-28T19:16:14.705Z,13.40
2019-04-28T19:19:05.350Z,13.30
2019-04-28T19:21:56.293Z,13.20
2019-04-28T19:24:43.842Z,13.10
2019-04-28T19:27:30.777Z,13.00
2019-04-28T19:30:18.203Z,13.00
2019-04-28T19:33:05.438Z,12.90
2019-04-28T19:35:52.822Z,12.90
2019-04-28T19:38:40.073Z,12.90
2019-04-28T19:41:27.221Z,12.80
2019-04-28T19:44:14.250Z,12.80
2019-04-28T19:47:01.238Z,12.70
2019-04-28T19:49:48.191Z,12.60
2019-04-28T19:52:38.691Z,12.50
2019-04-28T19:55:30.087Z,12.40
2019-04-28T19:58:30.293Z,12.40
2019-04-28T20:01:28.710Z,12.30
2019-04-28T20:04:16.054Z,12.30
2019-04-28T20:07:03.634Z,12.20
2019-04-28T20:09:50.818Z,12.10
2019-04-28T20:12:38.344Z,12.10
2019-04-28T20:15:25.504Z,12.00
2019-04-28T20:18:12.456Z,12.00
2019-04-28T20:20:59.725Z,11.90
2019-04-28T20:23:47.033Z,11.90
2019-04-28T20:26:34.417Z,11.80
2019-04-28T20:29:23.234Z,11.80
2019-04-28T20:32:10.641Z,11.80
2019-04-28T20:34:57.830Z,11.80
2019-04-28T20:37:51.886Z,11.30
2019-04-28T20:40:47.065Z,11.10
2019-04-28T20:43:34.722Z,11.10
2019-04-28T20:46:22.178Z,11.40
2019-04-28T20:49:09.610Z,11.50
2019-04-28T20:51:56.970Z,11.50
2019-04-28T20:54:44.186Z,11.50
2019-04-28T20:57:31.645Z,11.30
2019-04-28T21:00:18.909Z,11.30
2019-04-28T21:03:06.522Z,11.30
2019-04-28T21:05:53.728Z,11.20
2019-04-28T21:08:40.750Z,11.20
2019-04-28T21:11:28.393Z,11.20
2019-04-28T21:14:15.862Z,11.10
2019-04-28T21:17:03.301Z,11.10
2019-04-28T21:19:50.605Z,11.00
2019-04-28T21:22:37.966Z,11.00
2019-04-28T21:25:24.957Z,11.00
2019-04-28T21:28:12.137Z,11.00
2019-04-28T21:30:59.537Z,10.90
2019-04-28T21:33:46.748Z,10.80
2019-04-28T21:36:33.973Z,10.90
2019-04-28T21:39:21.330Z,10.80
2019-04-28T21:42:12.226Z,10.80
2019-04-28T21:45:09.450Z,10.70
2019-04-28T21:47:56.722Z,10.70
2019-04-28T21:50:43.981Z,10.70
2019-04-28T21:53:30.958Z,10.50
2019-04-28T21:56:17.961Z,10.60
2019-04-28T21:59:05.265Z,10.60
2019-04-28T22:01:52.505Z,10.50
2019-04-28T22:04:39.743Z,10.50
2019-04-28T22:07:27.354Z,10.50
2019-04-28T22:10:14.629Z,10.40
2019-04-28T22:13:02.094Z,10.40
2019-04-28T22:15:49.746Z,10.30
2019-04-28T22:18:37.409Z,10.30
2019-04-28T22:21:24.624Z,10.30
2019-04-28T22:24:34.029Z,10.30
2019-04-28T22:27:33.829Z,10.20
2019-04-28T22:30:20.912Z,10.20
2019-04-28T22:33:08.302Z,10.10
2019-04-28T22:35:55.545Z,10.10
2019-04-28T22:38:42.782Z,10.00
2019-04-28T22:41:30.058Z,10.00
2019-04-28T22:44:17.353Z,10.00
2019-04-28T22:47:04.829Z,9.90
2019-04-28T22:49:52.155Z,9.90
2019-04-28T22:52:39.345Z,9.90
2019-04-28T22:55:27.145Z,9.80
2019-04-28T22:58:21.574Z,9.80
2019-04-28T23:01:16.658Z,9.70
2019-04-28T23:04:23.352Z,9.70
2019-04-28T23:07:10.685Z,9.60
2019-04-28T23:09:57.836Z,9.60
2019-04-28T23:12:44.978Z,9.60
2019-04-28T23:15:32.137Z,9.60
2019-04-28T23:18:19.596Z,9.60
2019-04-28T23:21:21.453Z,9.50
2019-04-28T23:24:08.849Z,9.40
2019-04-28T23:26:56.068Z,9.50
2019-04-28T23:29:43.709Z,9.40
2019-04-28T23:32:31.793Z,9.40
2019-04-28T23:35:18.842Z,9.40
2019-04-28T23:38:06.166Z,9.30
2019-04-28T23:41:13.314Z,9.30
2019-04-28T23:44:00.789Z,9.30
2019-04-28T23:47:00.770Z,9.30
2019-04-28T23:49:47.769Z,9.20
2019-04-28T23:52:40.478Z,9.20
2019-04-28T23:55:27.496Z,9.20
2019-04-28T23:58:14.910Z,9.10
